Flugplatz Speyer

Für EDRY sind keine METAR/TAF Berichte vorhanden.
Es werden die Flugwettermeldungen vom Flugplatz Mannheim-City in 19 km Entfernung angezeigt.

Bericht für EDFM

vom 20.09. um 14:20 UTC

Wind 6 kt aus 290°

Sichtweite 10 km oder mehr

gute Sicht, keine Wolken < 5000 ft, keine CB, keine Wettererscheinungen (CAVOK)

Temperatur 26.0°C

Taupunkt 9.0°C

Luftfeuchtigkeit 34%

Luftdruck 1014 hPa

EDFM 201420Z 29006KT 230V340 CAVOK 26/09 Q1014
Keine Prognose (TAF) verfügbar.
Impressum